Terminal Aerodrome Forecast
Issued by NWS

Home | Current Version | Previous Version | Text Only | Print | Product List | Glossary On
Versions: 1 2 3 4 5 6 7 8 9 10 11 12 13 14 15 16 17 18 19 20 21 22 23 24
000
FTUS44 KMAF 210500
TAFPEQ
TAF
KPEQ 210522Z 2106/2206 08007KT P6SM SCT020 OVC050
      TEMPO 2107/2110 3SM TSRA BR BKN007 OVC025CB
     FM211000 07010KT P6SM OVC015
      TEMPO 2110/2114 5SM SHRA BR BKN007 OVC025
     FM211400 09009KT P6SM OVC020
      TEMPO 2114/2118 2SM TSRA BR BKN007 OVC025CB
     FM212100 07010KT P6SM BKN040=

USA.gov is the U.S. government's official web portal to all federal, state and local government web resources and services.